createdAt,value
2018-09-20T00:01:11.828Z,23.50
2018-09-20T00:03:40.511Z,23.50
2018-09-20T00:06:09.194Z,23.50
2018-09-20T00:08:37.847Z,23.50
2018-09-20T00:11:06.654Z,23.40
2018-09-20T00:13:36.178Z,23.40
2018-09-20T00:16:04.753Z,23.30
2018-09-20T00:18:33.284Z,23.30
2018-09-20T00:21:01.932Z,23.20
2018-09-20T00:23:31.127Z,23.20
2018-09-20T00:26:00.810Z,23.20
2018-09-20T00:28:29.395Z,23.20
2018-09-20T00:30:58.066Z,23.10
2018-09-20T00:33:26.639Z,23.10
2018-09-20T00:35:55.264Z,23.10
2018-09-20T00:38:23.911Z,23.10
2018-09-20T00:40:53.531Z,23.10
2018-09-20T00:43:22.103Z,23.10
2018-09-20T00:45:50.679Z,23.10
2018-09-20T00:48:19.316Z,23.10
2018-09-20T00:50:47.915Z,23.10
2018-09-20T00:53:16.496Z,23.10
2018-09-20T00:55:45.132Z,23.10
2018-09-20T00:58:13.795Z,23.10
2018-09-20T01:00:42.367Z,23.10
2018-09-20T01:03:10.983Z,23.10
2018-09-20T01:05:39.603Z,23.10
2018-09-20T01:08:08.224Z,23.10
2018-09-20T01:10:36.858Z,23.10
2018-09-20T01:13:05.520Z,23.10
2018-09-20T01:15:34.108Z,23.10
2018-09-20T01:18:02.771Z,23.00
2018-09-20T01:20:31.394Z,23.00
2018-09-20T01:23:00.019Z,23.00
2018-09-20T01:25:28.643Z,23.00
2018-09-20T01:27:57.255Z,23.00
2018-09-20T01:30:25.876Z,22.90
2018-09-20T01:32:54.492Z,22.90
2018-09-20T01:35:23.122Z,22.90
2018-09-20T01:37:51.751Z,22.80
2018-09-20T01:40:20.354Z,22.80
2018-09-20T01:42:48.964Z,22.80
2018-09-20T01:45:17.579Z,22.80
2018-09-20T01:47:46.926Z,22.70
2018-09-20T01:50:15.917Z,22.70
2018-09-20T01:52:44.600Z,22.70
2018-09-20T01:55:13.220Z,22.70
2018-09-20T01:57:41.812Z,22.70
2018-09-20T02:00:11.455Z,22.70
2018-09-20T02:02:40.080Z,22.70
2018-09-20T02:05:08.706Z,22.70
2018-09-20T02:07:37.307Z,22.70
2018-09-20T02:10:06.072Z,22.70
2018-09-20T02:12:35.762Z,22.70
2018-09-20T02:15:04.450Z,22.70
2018-09-20T02:17:33.035Z,22.70
2018-09-20T02:20:01.691Z,22.70
2018-09-20T02:22:30.263Z,22.70
2018-09-20T02:25:00.044Z,22.80
2018-09-20T02:27:28.675Z,22.80
2018-09-20T02:29:57.346Z,22.70
2018-09-20T02:32:25.960Z,22.80
2018-09-20T02:34:54.544Z,22.70
2018-09-20T02:37:24.201Z,22.70
2018-09-20T02:39:52.871Z,22.70
2018-09-20T02:42:21.463Z,22.70
2018-09-20T02:44:50.055Z,22.80
2018-09-20T02:47:18.630Z,22.70
2018-09-20T02:49:47.243Z,22.80
2018-09-20T02:52:15.895Z,22.70
2018-09-20T02:54:44.475Z,22.80
2018-09-20T02:57:13.108Z,22.80
2018-09-20T02:59:41.723Z,22.70
2018-09-20T03:02:10.315Z,22.70
2018-09-20T03:04:38.931Z,22.70
2018-09-20T03:07:07.526Z,22.70
2018-09-20T03:09:36.150Z,22.70
2018-09-20T03:12:04.781Z,22.70
2018-09-20T03:14:33.368Z,22.70
2018-09-20T03:17:02.320Z,22.70
2018-09-20T03:19:30.995Z,22.60
2018-09-20T03:21:59.652Z,22.70
2018-09-20T03:24:28.237Z,22.60
2018-09-20T03:26:57.044Z,22.60
2018-09-20T03:29:25.731Z,22.50
2018-09-20T03:31:54.328Z,22.50
2018-09-20T03:34:22.947Z,22.50
2018-09-20T03:36:51.556Z,22.50
2018-09-20T03:39:20.143Z,22.50
2018-09-20T03:41:48.766Z,22.50
2018-09-20T03:44:17.352Z,22.60
2018-09-20T03:46:46.337Z,22.60
2018-09-20T03:49:14.956Z,22.60
2018-09-20T03:51:43.614Z,22.60
2018-09-20T03:54:12.237Z,22.60
2018-09-20T03:56:40.871Z,22.60
2018-09-20T03:59:10.512Z,22.60
2018-09-20T04:01:39.091Z,22.50
2018-09-20T04:04:07.708Z,22.50
2018-09-20T04:06:36.291Z,22.60
2018-09-20T04:09:07.831Z,22.60
2018-09-20T04:11:36.534Z,22.60
2018-09-20T04:14:05.136Z,22.60
2018-09-20T04:16:33.935Z,22.60
2018-09-20T04:19:02.585Z,22.60
2018-09-20T04:21:35.069Z,22.50
2018-09-20T04:24:04.907Z,22.50
2018-09-20T04:26:33.629Z,22.50
2018-09-20T04:29:02.399Z,22.60
2018-09-20T04:31:31.407Z,22.50
2018-09-20T04:34:01.132Z,22.50
2018-09-20T04:36:30.332Z,22.60
2018-09-20T04:38:59.034Z,22.60
2018-09-20T04:41:27.647Z,22.50
2018-09-20T04:43:56.222Z,22.60
2018-09-20T04:46:24.856Z,22.60
2018-09-20T04:48:53.460Z,22.60
2018-09-20T04:51:22.112Z,22.60
2018-09-20T04:53:50.732Z,22.50
2018-09-20T04:56:19.320Z,22.60
2018-09-20T04:58:47.916Z,22.60
2018-09-20T05:01:16.608Z,22.60
2018-09-20T05:03:45.255Z,22.60
2018-09-20T05:06:13.859Z,22.60
2018-09-20T05:08:42.479Z,22.60
2018-09-20T05:11:11.092Z,22.60
2018-09-20T05:13:40.459Z,22.70
2018-09-20T05:16:09.108Z,22.70
2018-09-20T05:18:37.690Z,22.70
2018-09-20T05:21:06.323Z,22.80
2018-09-20T05:23:34.983Z,22.90
2018-09-20T05:26:04.588Z,22.90
2018-09-20T05:28:33.208Z,23.00
2018-09-20T05:31:01.867Z,23.10
2018-09-20T05:33:30.505Z,23.20
2018-09-20T05:35:59.498Z,23.20
2018-09-20T05:38:28.944Z,23.30
2018-09-20T05:40:57.587Z,23.40
2018-09-20T05:43:26.295Z,23.40
2018-09-20T05:45:54.887Z,23.50
2018-09-20T05:48:23.507Z,23.60
2018-09-20T05:50:53.360Z,23.70
2018-09-20T05:53:21.968Z,23.80
2018-09-20T05:55:50.588Z,23.90
2018-09-20T05:58:24.071Z,24.00
2018-09-20T06:00:53.203Z,24.10
2018-09-20T06:03:25.745Z,24.20
2018-09-20T06:05:54.804Z,24.30
2018-09-20T06:08:23.417Z,24.50
2018-09-20T06:10:52.028Z,24.60
2018-09-20T06:13:20.711Z,24.60
2018-09-20T06:15:49.303Z,24.70
2018-09-20T06:18:17.941Z,24.80
2018-09-20T06:20:46.547Z,24.90
2018-09-20T06:23:15.184Z,25.00
2018-09-20T06:25:44.027Z,25.10
2018-09-20T06:28:12.701Z,25.20
2018-09-20T06:30:41.294Z,25.30
2018-09-20T06:33:09.993Z,25.40
2018-09-20T06:35:38.776Z,25.50
2018-09-20T06:38:07.402Z,25.50
2018-09-20T06:40:37.095Z,25.60
2018-09-20T06:43:05.776Z,25.70
2018-09-20T06:45:34.371Z,25.80
2018-09-20T06:48:03.236Z,25.90
2018-09-20T06:50:31.957Z,26.10
2018-09-20T06:53:01.673Z,26.20
2018-09-20T06:55:30.312Z,26.40
2018-09-20T06:57:58.931Z,26.50
2018-09-20T07:00:27.574Z,26.60
2018-09-20T07:02:56.292Z,26.70
2018-09-20T07:05:27.073Z,26.90
2018-09-20T07:07:55.788Z,27.00
2018-09-20T07:10:24.489Z,27.10
2018-09-20T07:12:53.103Z,27.20
2018-09-20T07:15:21.744Z,27.30
2018-09-20T07:17:51.475Z,27.40
2018-09-20T07:20:20.123Z,27.50
2018-09-20T07:22:48.731Z,27.60
2018-09-20T07:25:17.399Z,27.70
2018-09-20T07:27:46.091Z,27.70
2018-09-20T07:30:14.783Z,27.70
2018-09-20T07:32:43.437Z,27.70
2018-09-20T07:35:12.125Z,27.70
2018-09-20T07:37:40.729Z,27.90
2018-09-20T07:40:09.860Z,28.00
2018-09-20T07:42:40.293Z,28.00
2018-09-20T07:45:09.295Z,28.00
2018-09-20T07:47:37.935Z,28.00
2018-09-20T07:50:06.772Z,27.90
2018-09-20T07:52:35.515Z,27.80
2018-09-20T07:55:04.204Z,27.70
2018-09-20T07:57:32.889Z,27.60
2018-09-20T08:00:02.630Z,27.60
2018-09-20T08:02:31.593Z,27.50
2018-09-20T08:05:00.269Z,27.50
2018-09-20T08:07:29.355Z,27.50
2018-09-20T08:09:58.048Z,27.40
2018-09-20T08:12:26.779Z,27.40
2018-09-20T08:14:55.411Z,27.40
2018-09-20T08:17:24.044Z,27.40
2018-09-20T08:19:52.765Z,27.40
2018-09-20T08:22:21.387Z,27.40
2018-09-20T08:24:50.066Z,27.30
2018-09-20T08:27:18.688Z,27.30
2018-09-20T08:29:47.507Z,27.30
2018-09-20T08:32:16.235Z,27.40
2018-09-20T08:34:44.891Z,27.40
2018-09-20T08:37:23.425Z,27.50
2018-09-20T08:39:52.089Z,27.60
2018-09-20T08:42:20.853Z,27.70
2018-09-20T08:44:50.400Z,27.80
2018-09-20T08:47:19.147Z,27.90
2018-09-20T08:49:47.799Z,27.90
2018-09-20T08:52:16.511Z,28.00
2018-09-20T08:54:45.160Z,28.10
2018-09-20T08:57:13.882Z,28.10
2018-09-20T08:59:42.617Z,28.20
2018-09-20T09:02:11.780Z,28.30
2018-09-20T09:04:40.429Z,28.40
2018-09-20T09:07:09.111Z,28.40
2018-09-20T09:09:37.768Z,28.50
2018-09-20T09:12:06.725Z,28.50
2018-09-20T09:14:35.521Z,28.50
2018-09-20T09:17:04.284Z,28.40
2018-09-20T09:19:32.905Z,28.30
2018-09-20T09:22:01.649Z,28.40
2018-09-20T09:24:30.339Z,28.40
2018-09-20T09:26:59.016Z,28.50
2018-09-20T09:29:27.672Z,28.50
2018-09-20T09:31:56.463Z,28.50
2018-09-20T09:34:25.084Z,28.40
2018-09-20T09:36:53.773Z,28.40
2018-09-20T09:39:22.447Z,28.40
2018-09-20T09:41:51.076Z,28.50
2018-09-20T09:44:19.708Z,28.50
2018-09-20T09:46:48.351Z,28.70
2018-09-20T09:49:17.220Z,28.80
2018-09-20T09:51:46.118Z,29.10
2018-09-20T09:54:15.754Z,29.30
2018-09-20T09:56:44.409Z,29.40
2018-09-20T09:59:13.056Z,29.40
2018-09-20T10:01:41.915Z,29.50
2018-09-20T10:04:10.551Z,29.60
2018-09-20T10:06:40.277Z,29.50
2018-09-20T10:09:10.280Z,29.50
2018-09-20T10:11:39.183Z,29.40
2018-09-20T10:14:08.282Z,29.40
2018-09-20T10:16:36.908Z,29.30
2018-09-20T10:19:06.563Z,29.20
2018-09-20T10:21:35.232Z,29.00
2018-09-20T10:24:04.010Z,28.80
2018-09-20T10:26:32.788Z,28.70
2018-09-20T10:29:01.408Z,28.60
2018-09-20T10:31:31.275Z,28.60
2018-09-20T10:34:00.010Z,28.70
2018-09-20T10:36:30.963Z,28.70
2018-09-20T10:39:00.936Z,28.80
2018-09-20T10:41:31.176Z,28.90
2018-09-20T10:43:59.986Z,29.10
2018-09-20T10:46:28.957Z,29.30
2018-09-20T10:48:58.075Z,29.40
2018-09-20T10:51:27.095Z,29.50
2018-09-20T10:53:56.568Z,29.70
2018-09-20T10:56:25.688Z,29.80
2018-09-20T10:58:54.548Z,29.90
2018-09-20T11:01:23.320Z,29.90
2018-09-20T11:03:52.059Z,29.90
2018-09-20T11:06:20.727Z,29.80
2018-09-20T11:08:50.688Z,29.80
2018-09-20T11:11:19.700Z,29.60
2018-09-20T11:13:50.827Z,29.40
2018-09-20T11:16:21.295Z,29.20
2018-09-20T11:18:50.008Z,29.10
2018-09-20T11:21:19.305Z,29.10
2018-09-20T11:23:53.592Z,29.20
2018-09-20T11:26:23.060Z,29.20
2018-09-20T11:28:54.200Z,29.30
2018-09-20T11:31:28.312Z,29.40
2018-09-20T11:33:57.210Z,29.40
2018-09-20T11:36:26.151Z,29.30
2018-09-20T11:38:55.135Z,29.00
2018-09-20T11:41:23.807Z,28.90
2018-09-20T11:43:53.343Z,28.80
2018-09-20T11:46:23.933Z,28.90
2018-09-20T11:48:55.549Z,29.00
2018-09-20T11:51:26.916Z,29.00
2018-09-20T11:53:56.178Z,29.00
2018-09-20T11:56:28.548Z,29.10
2018-09-20T11:58:57.379Z,29.10
2018-09-20T12:01:26.086Z,29.10
2018-09-20T12:03:56.060Z,29.20
2018-09-20T12:06:24.735Z,29.30
2018-09-20T12:08:53.796Z,29.30
2018-09-20T12:11:24.660Z,29.40
2018-09-20T12:13:53.284Z,29.50
2018-09-20T12:16:23.028Z,29.60
2018-09-20T12:18:51.728Z,29.70
2018-09-20T12:21:25.002Z,29.70
2018-09-20T12:23:53.696Z,29.70
2018-09-20T12:26:27.516Z,29.80
2018-09-20T12:28:59.576Z,29.80
2018-09-20T12:31:29.961Z,29.90
2018-09-20T12:33:58.572Z,29.90
2018-09-20T12:36:28.380Z,29.80
2018-09-20T12:39:10.034Z,29.80
2018-09-20T12:41:38.760Z,29.80
2018-09-20T12:44:09.011Z,29.80
2018-09-20T12:46:41.198Z,29.80
2018-09-20T12:49:26.189Z,29.80
2018-09-20T12:51:57.239Z,29.80
2018-09-20T12:54:27.510Z,29.80
2018-09-20T12:56:59.936Z,29.90
2018-09-20T12:59:41.140Z,29.90
2018-09-20T13:02:10.313Z,29.90
2018-09-20T13:04:39.924Z,29.80
2018-09-20T13:07:08.584Z,29.70
2018-09-20T13:09:37.248Z,29.80
2018-09-20T13:12:06.048Z,30.10
2018-09-20T13:14:34.655Z,30.30
2018-09-20T13:17:03.516Z,30.40
2018-09-20T13:19:32.172Z,30.30
2018-09-20T13:22:01.292Z,30.30
2018-09-20T13:24:29.960Z,30.40
2018-09-20T13:26:58.615Z,30.30
2018-09-20T13:29:27.296Z,30.20
2018-09-20T13:31:55.964Z,30.20
2018-09-20T13:34:24.683Z,30.30
2018-09-20T13:36:54.216Z,30.20
2018-09-20T13:39:22.944Z,30.20
2018-09-20T13:41:51.628Z,30.30
2018-09-20T13:44:20.995Z,30.50
2018-09-20T13:46:49.627Z,30.50
2018-09-20T13:49:19.704Z,30.40
2018-09-20T13:51:48.540Z,30.40
2018-09-20T13:54:17.185Z,30.30
2018-09-20T13:56:45.844Z,30.00
2018-09-20T13:59:14.493Z,29.90
2018-09-20T14:01:44.132Z,29.80
2018-09-20T14:04:12.741Z,29.90
2018-09-20T14:06:42.252Z,30.10
2018-09-20T14:09:12.035Z,30.30
2018-09-20T14:11:41.191Z,30.40
2018-09-20T14:14:10.790Z,30.20
2018-09-20T14:16:39.432Z,29.80
2018-09-20T14:19:08.132Z,29.40
2018-09-20T14:21:36.826Z,29.10
2018-09-20T14:24:05.531Z,28.90
2018-09-20T14:26:35.179Z,28.80
2018-09-20T14:29:43.749Z,28.60
2018-09-20T14:32:14.540Z,28.40
2018-09-20T14:34:44.197Z,28.30
2018-09-20T14:37:14.988Z,28.10
2018-09-20T14:39:45.503Z,28.20
2018-09-20T14:42:16.655Z,28.30
2018-09-20T14:44:46.240Z,28.40
2018-09-20T14:47:15.757Z,28.60
2018-09-20T14:49:45.332Z,28.70
2018-09-20T14:52:15.136Z,28.80
2018-09-20T14:54:44.914Z,28.80
2018-09-20T14:57:14.824Z,28.80
2018-09-20T14:59:44.376Z,28.80
2018-09-20T15:02:15.136Z,28.90
2018-09-20T15:04:44.688Z,29.00
2018-09-20T15:07:14.187Z,29.00
2018-09-20T15:09:43.839Z,28.90
2018-09-20T15:12:13.297Z,28.90
2018-09-20T15:14:43.010Z,28.90
2018-09-20T15:17:12.627Z,28.90
2018-09-20T15:19:43.222Z,28.80
2018-09-20T15:22:13.389Z,28.80
2018-09-20T15:24:42.957Z,28.70
2018-09-20T15:27:12.389Z,28.70
2018-09-20T15:29:41.886Z,28.50
2018-09-20T15:32:11.637Z,28.50
2018-09-20T15:34:41.316Z,28.50
2018-09-20T15:37:11.453Z,28.50
2018-09-20T15:39:40.975Z,28.60
2018-09-20T15:42:10.671Z,28.40
2018-09-20T15:44:40.893Z,28.30
2018-09-20T15:47:10.503Z,28.20
2018-09-20T15:49:40.113Z,28.20
2018-09-20T15:52:10.224Z,28.20
2018-09-20T15:54:40.996Z,28.10
2018-09-20T15:57:10.642Z,28.00
2018-09-20T15:59:40.197Z,28.00
2018-09-20T16:02:10.191Z,27.90
2018-09-20T16:04:39.635Z,28.00
2018-09-20T16:07:09.362Z,27.90
2018-09-20T16:09:39.119Z,27.90
2018-09-20T16:12:08.638Z,27.90
2018-09-20T16:14:38.178Z,27.90
2018-09-20T16:17:08.228Z,28.00
2018-09-20T16:19:37.706Z,27.90
2018-09-20T16:22:07.222Z,27.90
2018-09-20T16:24:37.614Z,27.80
2018-09-20T16:27:07.294Z,27.80
2018-09-20T16:29:51.653Z,27.80
2018-09-20T16:34:38.575Z,27.60
2018-09-20T16:37:19.522Z,27.30
2018-09-20T16:39:51.150Z,27.00
2018-09-20T16:42:26.355Z,26.80
2018-09-20T16:44:57.608Z,26.60
2018-09-20T16:47:27.065Z,26.50
2018-09-20T16:49:56.526Z,26.30
2018-09-20T16:52:26.006Z,26.20
2018-09-20T16:54:55.586Z,26.10
2018-09-20T16:57:25.079Z,26.00
2018-09-20T16:59:54.554Z,26.00
2018-09-20T17:02:24.545Z,25.90
2018-09-20T17:04:54.142Z,25.90
2018-09-20T17:07:24.477Z,25.90
2018-09-20T17:09:55.200Z,25.80
2018-09-20T17:12:24.946Z,25.80
2018-09-20T17:14:54.688Z,25.70
2018-09-20T17:17:24.171Z,25.70
2018-09-20T17:19:53.625Z,25.60
2018-09-20T17:22:23.293Z,25.60
2018-09-20T17:24:52.767Z,25.50
2018-09-20T17:27:22.311Z,25.50
2018-09-20T17:29:51.761Z,25.40
2018-09-20T17:32:21.219Z,25.30
2018-09-20T17:34:50.969Z,25.30
2018-09-20T17:37:26.246Z,25.20
2018-09-20T17:39:57.023Z,25.20
2018-09-20T17:42:27.744Z,25.10
2018-09-20T17:45:02.583Z,25.00
2018-09-20T17:47:33.045Z,24.90
2018-09-20T17:50:03.559Z,24.90
2018-09-20T17:52:33.977Z,24.80
2018-09-20T17:55:05.134Z,24.70
2018-09-20T17:57:36.463Z,24.60
2018-09-20T18:00:08.507Z,24.60
2018-09-20T18:02:38.465Z,24.50
2018-09-20T18:05:08.343Z,24.50
2018-09-20T18:07:37.872Z,24.60
2018-09-20T18:10:07.901Z,24.50
2018-09-20T18:12:37.427Z,24.50
2018-09-20T18:15:07.140Z,24.50
2018-09-20T18:17:37.664Z,24.60
2018-09-20T18:20:07.236Z,24.60
2018-09-20T18:22:36.796Z,24.60
2018-09-20T18:25:06.561Z,24.60
2018-09-20T18:27:36.374Z,24.60
2018-09-20T18:30:06.353Z,24.70
2018-09-20T18:32:38.548Z,24.70
2018-09-20T18:35:08.352Z,24.70
2018-09-20T18:37:39.031Z,24.70
2018-09-20T18:40:08.673Z,24.70
2018-09-20T18:42:40.181Z,24.70
2018-09-20T18:45:12.752Z,24.60
2018-09-20T18:47:43.135Z,24.70
2018-09-20T18:50:13.005Z,24.60
2018-09-20T18:52:45.027Z,24.60
2018-09-20T18:55:15.212Z,24.60
2018-09-20T18:57:44.702Z,24.60
2018-09-20T19:00:15.679Z,24.60
2018-09-20T19:02:45.255Z,24.60
2018-09-20T19:05:14.784Z,24.60
2018-09-20T19:07:44.412Z,24.60
2018-09-20T19:10:13.948Z,24.60
2018-09-20T19:12:49.023Z,24.50
2018-09-20T19:15:18.591Z,24.50
2018-09-20T19:17:51.633Z,24.50
2018-09-20T19:20:21.113Z,24.50
2018-09-20T19:22:52.584Z,24.50
2018-09-20T19:25:38.524Z,24.40
2018-09-20T19:28:12.424Z,24.30
2018-09-20T19:30:46.047Z,24.20
2018-09-20T19:33:17.852Z,24.20
2018-09-20T19:35:51.128Z,24.20
2018-09-20T19:38:24.400Z,24.20
2018-09-20T19:40:56.968Z,24.20
2018-09-20T19:43:26.676Z,24.20
2018-09-20T19:45:59.416Z,24.10
2018-09-20T19:48:33.053Z,24.10
2018-09-20T19:51:05.198Z,24.10
2018-09-20T19:53:36.728Z,24.00
2018-09-20T19:56:07.019Z,24.00
2018-09-20T19:58:40.811Z,24.00
2018-09-20T20:01:12.698Z,24.00
2018-09-20T20:03:42.203Z,23.90
2018-09-20T20:06:11.799Z,24.00
2018-09-20T20:08:52.400Z,23.90
2018-09-20T20:11:23.864Z,23.90
2018-09-20T20:14:02.205Z,23.90
2018-09-20T20:16:40.647Z,23.90
2018-09-20T20:19:11.268Z,23.90
2018-09-20T20:21:40.863Z,23.90
2018-09-20T20:24:14.665Z,23.90
2018-09-20T20:26:45.062Z,23.90
2018-09-20T20:29:15.521Z,23.90
2018-09-20T20:31:47.740Z,23.90
2018-09-20T20:34:18.339Z,23.80
2018-09-20T20:36:48.188Z,23.70
2018-09-20T20:39:18.911Z,23.70
2018-09-20T20:41:50.931Z,23.60
2018-09-20T20:44:23.339Z,23.50
2018-09-20T20:46:53.871Z,23.40
2018-09-20T20:49:23.698Z,23.40
2018-09-20T20:51:54.355Z,23.30
2018-09-20T20:54:24.447Z,23.30
2018-09-20T20:57:01.356Z,23.20
2018-09-20T20:59:31.652Z,23.20
2018-09-20T21:02:01.226Z,23.10
2018-09-20T21:04:30.781Z,23.10
2018-09-20T21:07:01.382Z,23.10
2018-09-20T21:09:31.415Z,23.10
2018-09-20T21:12:01.636Z,23.00
2018-09-20T21:14:32.018Z,23.00
2018-09-20T21:17:03.137Z,23.00
2018-09-20T21:19:33.330Z,23.00
2018-09-20T21:22:03.611Z,23.00
2018-09-20T21:24:33.510Z,22.90
2018-09-20T21:27:03.495Z,23.00
2018-09-20T21:29:33.672Z,23.00
2018-09-20T21:32:03.544Z,23.00
2018-09-20T21:34:34.335Z,23.00
2018-09-20T21:37:04.139Z,23.00
2018-09-20T21:39:34.900Z,23.00
2018-09-20T21:42:05.430Z,23.00
2018-09-20T21:44:35.959Z,23.00
2018-09-20T21:47:05.852Z,23.00
2018-09-20T21:49:36.399Z,23.10
2018-09-20T21:52:06.539Z,23.10
2018-09-20T21:54:36.535Z,23.10
2018-09-20T21:57:06.382Z,23.10
2018-09-20T21:59:36.040Z,23.10
2018-09-20T22:02:06.247Z,23.10
2018-09-20T22:04:36.915Z,23.10
2018-09-20T22:07:07.747Z,23.10
2018-09-20T22:09:37.512Z,23.10
2018-09-20T22:12:07.784Z,23.10
2018-09-20T22:14:37.631Z,23.10
2018-09-20T22:17:08.843Z,23.10
2018-09-20T22:19:38.689Z,23.10
2018-09-20T22:22:08.598Z,23.10
2018-09-20T22:24:39.123Z,23.10
2018-09-20T22:27:08.729Z,23.10
2018-09-20T22:29:38.619Z,23.10
2018-09-20T22:32:09.351Z,23.10
2018-09-20T22:34:40.394Z,23.10
2018-09-20T22:37:09.903Z,23.10
2018-09-20T22:39:39.552Z,23.10
2018-09-20T22:42:09.936Z,23.10
2018-09-20T22:44:39.980Z,23.10
2018-09-20T22:47:09.928Z,23.10
2018-09-20T22:49:40.295Z,23.10
2018-09-20T22:52:10.023Z,23.10
2018-09-20T22:54:40.263Z,23.10
2018-09-20T22:57:10.796Z,23.10
2018-09-20T22:59:41.039Z,23.10
2018-09-20T23:02:10.639Z,23.10
2018-09-20T23:04:40.539Z,23.10
2018-09-20T23:07:10.552Z,23.10
2018-09-20T23:09:40.676Z,23.10
2018-09-20T23:12:11.383Z,23.10
2018-09-20T23:14:41.415Z,23.10
2018-09-20T23:17:12.322Z,23.10
2018-09-20T23:19:42.857Z,23.10
2018-09-20T23:22:12.724Z,23.10
2018-09-20T23:24:43.097Z,23.10
2018-09-20T23:27:13.930Z,23.10
2018-09-20T23:29:44.667Z,23.10
2018-09-20T23:32:14.582Z,23.10
2018-09-20T23:34:44.115Z,23.10
2018-09-20T23:37:14.148Z,23.10
2018-09-20T23:39:43.932Z,23.00
2018-09-20T23:42:14.187Z,23.00
2018-09-20T23:44:44.710Z,23.00
2018-09-20T23:47:16.773Z,23.00
2018-09-20T23:49:54.508Z,23.00
2018-09-20T23:52:24.912Z,23.00
2018-09-20T23:54:54.824Z,23.00
2018-09-20T23:57:25.015Z,23.00
2018-09-20T23:59:54.933Z,23.00
